createdAt,value
2022-09-17T00:00:22.332Z,100059.16
2022-09-17T00:02:55.664Z,100069.75
2022-09-17T00:05:23.592Z,100067.06
2022-09-17T00:07:51.741Z,100054.63
2022-09-17T00:10:19.582Z,100062.59
2022-09-17T00:12:46.933Z,100069.63
2022-09-17T00:15:13.656Z,100070.53
2022-09-17T00:17:41.589Z,100066.09
2022-09-17T00:20:10.506Z,100069.59
2022-09-17T00:22:39.958Z,100086.56
2022-09-17T00:25:08.549Z,100079.41
2022-09-17T00:27:35.314Z,100073.16
2022-09-17T00:30:02.287Z,100077.56
2022-09-17T00:32:29.024Z,100081.16
2022-09-17T00:34:55.817Z,100088.19
2022-09-17T00:37:22.575Z,100092.59
2022-09-17T00:39:49.344Z,100085.47
2022-09-17T00:42:17.084Z,100093.38
2022-09-17T00:44:50.714Z,100089.91
2022-09-17T00:47:29.087Z,100090.78
2022-09-17T00:49:59.748Z,100090.84
2022-09-17T00:52:31.647Z,100093.63
2022-09-17T00:55:03.563Z,100090.16
2022-09-17T00:57:31.398Z,100092.00
2022-09-17T00:59:58.186Z,100090.25
2022-09-17T01:02:25.279Z,100099.19
2022-09-17T01:04:52.072Z,100104.53
2022-09-17T01:07:27.565Z,100101.84
2022-09-17T01:10:18.498Z,100101.00
2022-09-17T01:13:07.376Z,100093.84
2022-09-17T01:15:54.478Z,100105.44
2022-09-17T01:18:24.965Z,100103.69
2022-09-17T01:21:01.606Z,100101.00
2022-09-17T01:23:47.238Z,100097.50
2022-09-17T01:26:36.399Z,100087.81
2022-09-17T01:29:43.213Z,100101.28
2022-09-17T01:32:12.680Z,100109.38
2022-09-17T01:34:55.603Z,100102.28
2022-09-17T01:37:30.911Z,100105.91
2022-09-17T01:40:08.437Z,100105.19
2022-09-17T01:42:59.612Z,100120.44
2022-09-17T01:45:38.867Z,100125.88
2022-09-17T01:48:18.616Z,100115.31
2022-09-17T01:51:01.094Z,100121.59
2022-09-17T01:53:36.738Z,100126.13
2022-09-17T01:56:03.715Z,100121.78
2022-09-17T01:58:35.447Z,100113.81
2022-09-17T02:01:05.063Z,100125.34
2022-09-17T02:03:58.159Z,100127.09
2022-09-17T02:06:29.888Z,100128.91
2022-09-17T02:09:01.071Z,100129.78
2022-09-17T02:11:28.299Z,100122.69
2022-09-17T02:14:08.286Z,100129.78
2022-09-17T02:16:36.696Z,100122.69
2022-09-17T02:19:10.596Z,100128.03
2022-09-17T02:22:03.515Z,100129.00
2022-09-17T02:25:02.452Z,100134.34
2022-09-17T02:27:51.071Z,100137.91
2022-09-17T02:30:17.949Z,100150.44
2022-09-17T02:32:44.940Z,100146.88
2022-09-17T02:35:13.843Z,100152.25
2022-09-17T02:37:41.832Z,100141.59
2022-09-17T02:40:09.598Z,100138.94
2022-09-17T02:42:58.898Z,100139.91
2022-09-17T02:45:34.880Z,100143.59
2022-09-17T02:48:39.096Z,100148.91
2022-09-17T02:51:41.100Z,100150.84
2022-09-17T02:54:18.373Z,100157.13
2022-09-17T02:57:05.332Z,100152.63
2022-09-17T03:00:02.882Z,100162.38
2022-09-17T03:02:39.829Z,100155.28
2022-09-17T03:05:07.793Z,100149.16
2022-09-17T03:07:34.569Z,100150.09
2022-09-17T03:10:01.313Z,100148.34
2022-09-17T03:12:28.029Z,100159.03
2022-09-17T03:14:54.811Z,100156.38
2022-09-17T03:17:21.542Z,100147.59
2022-09-17T03:19:48.288Z,100153.81
2022-09-17T03:22:15.300Z,100158.38
2022-09-17T03:24:42.142Z,100153.97
2022-09-17T03:27:08.900Z,100164.63
2022-09-17T03:29:35.714Z,100170.00
2022-09-17T03:32:02.518Z,100169.16
2022-09-17T03:34:29.230Z,100164.72
2022-09-17T03:36:55.947Z,100162.03
2022-09-17T03:39:22.690Z,100167.41
2022-09-17T03:41:49.422Z,100170.00
2022-09-17T03:44:18.501Z,100173.56
2022-09-17T03:46:45.705Z,100178.00
2022-09-17T03:49:12.465Z,100167.34
2022-09-17T03:51:39.186Z,100171.75
2022-09-17T03:54:06.600Z,100178.88
2022-09-17T03:56:33.565Z,100178.81
2022-09-17T03:59:00.803Z,100176.16
2022-09-17T04:01:28.101Z,100179.72
2022-09-17T04:03:55.333Z,100186.00
2022-09-17T04:06:22.147Z,100186.91
2022-09-17T04:08:48.894Z,100187.91
2022-09-17T04:11:15.809Z,100194.13
2022-09-17T04:13:42.544Z,100185.31
2022-09-17T04:16:09.396Z,100185.38
2022-09-17T04:18:36.199Z,100191.66
2022-09-17T04:21:03.650Z,100191.69
2022-09-17T04:23:30.415Z,100196.19
2022-09-17T04:25:57.151Z,100192.69
2022-09-17T04:28:23.912Z,100198.06
2022-09-17T04:30:50.793Z,100199.00
2022-09-17T04:33:17.623Z,100199.88
2022-09-17T04:35:45.176Z,100207.94
2022-09-17T04:38:13.761Z,100202.53
2022-09-17T04:40:42.242Z,100191.91
2022-09-17T04:43:10.502Z,100189.16
2022-09-17T04:45:37.270Z,100182.97
2022-09-17T04:48:04.343Z,100186.47
2022-09-17T04:50:31.214Z,100190.03
2022-09-17T04:52:57.946Z,100182.97
2022-09-17T04:55:25.370Z,100190.97
2022-09-17T04:57:53.387Z,100191.94
2022-09-17T05:00:21.275Z,100198.13
2022-09-17T05:02:49.908Z,100198.13
2022-09-17T05:05:18.161Z,100199.97
2022-09-17T05:07:44.905Z,100202.63
2022-09-17T05:10:12.702Z,100204.41
2022-09-17T05:12:39.482Z,100214.19
2022-09-17T05:15:06.888Z,100216.84
2022-09-17T05:17:33.614Z,100215.06
2022-09-17T05:20:00.352Z,100223.03
2022-09-17T05:22:27.072Z,100223.97
2022-09-17T05:24:53.863Z,100231.91
2022-09-17T05:27:20.710Z,100224.84
2022-09-17T05:29:47.430Z,100225.72
2022-09-17T05:32:14.167Z,100237.25
2022-09-17T05:34:41.458Z,100239.00
2022-09-17T05:37:11.629Z,100222.09
2022-09-17T05:39:38.434Z,100230.03
2022-09-17T05:42:05.302Z,100236.25
2022-09-17T05:44:32.120Z,100237.03
2022-09-17T05:46:59.246Z,100241.41
2022-09-17T05:49:26.099Z,100242.22
2022-09-17T05:51:52.817Z,100245.72
2022-09-17T05:54:19.617Z,100244.78
2022-09-17T05:56:46.417Z,100254.50
2022-09-17T05:59:13.197Z,100259.75
2022-09-17T06:01:39.993Z,100256.16
2022-09-17T06:04:06.738Z,100264.94
2022-09-17T06:06:33.522Z,100256.06
2022-09-17T06:09:00.522Z,100264.78
2022-09-17T06:11:27.328Z,100265.66
2022-09-17T06:13:54.811Z,100256.75
2022-09-17T06:16:22.894Z,100259.31
2022-09-17T06:18:55.604Z,100266.41
2022-09-17T06:21:22.884Z,100259.25
2022-09-17T06:23:50.477Z,100262.72
2022-09-17T06:26:17.643Z,100276.94
2022-09-17T06:28:44.739Z,100290.22
2022-09-17T06:31:12.622Z,100278.66
2022-09-17T06:33:39.615Z,100281.34
2022-09-17T06:36:14.141Z,100279.53
2022-09-17T06:38:41.969Z,100275.09
2022-09-17T06:41:08.849Z,100283.00
2022-09-17T06:43:35.622Z,100290.97
2022-09-17T06:46:05.974Z,100290.91
2022-09-17T06:48:35.311Z,100293.53
2022-09-17T06:51:06.516Z,100280.13
2022-09-17T06:53:33.731Z,100285.31
2022-09-17T06:56:05.883Z,100284.34
2022-09-17T06:58:34.033Z,100292.41
2022-09-17T07:01:01.543Z,100286.19
2022-09-17T07:03:29.068Z,100283.34
2022-09-17T07:05:55.853Z,100294.84
2022-09-17T07:08:22.807Z,100290.34
2022-09-17T07:10:49.791Z,100287.66
2022-09-17T07:13:16.500Z,100277.78
2022-09-17T07:15:43.319Z,100279.41
2022-09-17T07:18:11.521Z,100278.34
2022-09-17T07:20:39.142Z,100273.75
2022-09-17T07:23:05.878Z,100271.38
2022-09-17T07:25:32.600Z,100277.38
2022-09-17T07:27:59.701Z,100270.03
2022-09-17T07:30:26.534Z,100272.34
2022-09-17T07:32:53.262Z,100273.53
2022-09-17T07:35:19.977Z,100277.78
2022-09-17T07:37:47.496Z,100271.88
2022-09-17T07:40:14.309Z,100265.81
2022-09-17T07:42:41.098Z,100267.97
2022-09-17T07:45:08.253Z,100273.47
2022-09-17T07:47:39.989Z,100281.34
2022-09-17T07:50:07.959Z,100277.91
2022-09-17T07:52:34.706Z,100276.28
2022-09-17T07:55:01.517Z,100276.97
2022-09-17T07:57:28.295Z,100269.34
2022-09-17T07:59:55.076Z,100277.75
2022-09-17T08:02:24.311Z,100273.34
2022-09-17T08:04:51.451Z,100261.81
2022-09-17T08:07:18.421Z,100258.66
2022-09-17T08:09:45.138Z,100264.78
2022-09-17T08:12:12.006Z,100260.88
2022-09-17T08:14:38.832Z,100252.59
2022-09-17T08:17:08.095Z,100259.84
2022-09-17T08:19:34.891Z,100253.00
2022-09-17T08:22:01.674Z,100255.91
2022-09-17T08:24:28.449Z,100259.81
2022-09-17T08:26:55.238Z,100259.06
2022-09-17T08:29:22.012Z,100269.00
2022-09-17T08:31:49.024Z,100275.19
2022-09-17T08:34:15.804Z,100271.13
2022-09-17T08:36:42.529Z,100265.09
2022-09-17T08:39:11.057Z,100278.69
2022-09-17T08:41:52.621Z,100266.47
2022-09-17T08:44:25.612Z,100280.25
2022-09-17T08:46:54.908Z,100271.81
2022-09-17T08:49:37.160Z,100263.38
2022-09-17T08:52:33.894Z,100266.41
2022-09-17T08:55:13.230Z,100272.84
2022-09-17T08:57:45.345Z,100264.97
2022-09-17T09:00:22.776Z,100266.81
2022-09-17T09:03:13.822Z,100265.97
2022-09-17T09:05:46.362Z,100272.28
2022-09-17T09:08:44.009Z,100270.19
2022-09-17T09:11:16.504Z,100270.88
2022-09-17T09:13:45.598Z,100272.53
2022-09-17T09:16:25.058Z,100272.53
2022-09-17T09:18:54.820Z,100269.88
2022-09-17T09:24:42.449Z,100263.97
2022-09-17T09:27:19.328Z,100258.84
2022-09-17T09:30:08.974Z,100259.94
2022-09-17T09:32:54.005Z,100254.81
2022-09-17T09:35:32.939Z,100250.25
2022-09-17T09:38:04.746Z,100259.81
2022-09-17T09:40:37.246Z,100250.47
2022-09-17T09:43:15.582Z,100246.78
2022-09-17T09:46:03.785Z,100247.47
2022-09-17T09:48:49.069Z,100260.94
2022-09-17T09:51:33.036Z,100257.53
2022-09-17T09:54:41.199Z,100247.69
2022-09-17T09:57:12.292Z,100251.34
2022-09-17T09:59:41.314Z,100255.75
2022-09-17T10:02:08.763Z,100258.38
2022-09-17T10:04:35.730Z,100264.44
2022-09-17T10:07:07.704Z,100252.72
2022-09-17T10:09:37.133Z,100254.38
2022-09-17T10:12:10.868Z,100252.47
2022-09-17T10:14:39.287Z,100244.25
2022-09-17T10:17:14.465Z,100248.50
2022-09-17T10:19:42.046Z,100256.25
2022-09-17T10:22:20.059Z,100256.06
2022-09-17T10:24:47.477Z,100253.31
2022-09-17T10:27:16.990Z,100257.59
2022-09-17T10:29:45.911Z,100254.88
2022-09-17T10:32:20.778Z,100248.41
2022-09-17T10:35:24.172Z,100251.66
2022-09-17T10:37:54.401Z,100246.91
2022-09-17T10:40:21.086Z,100243.91
2022-09-17T10:42:49.441Z,100239.91
2022-09-17T10:45:30.342Z,100242.91
2022-09-17T10:47:58.373Z,100242.41
2022-09-17T10:50:28.828Z,100232.06
2022-09-17T10:52:57.926Z,100231.13
2022-09-17T10:55:35.783Z,100225.91
2022-09-17T10:58:08.344Z,100237.03
2022-09-17T11:00:45.165Z,100230.31
2022-09-17T11:03:30.314Z,100245.91
2022-09-17T11:06:27.076Z,100244.06
2022-09-17T11:09:12.633Z,100234.16
2022-09-17T11:11:40.239Z,100231.06
2022-09-17T11:14:15.948Z,100229.34
2022-09-17T11:17:08.018Z,100227.44
2022-09-17T11:19:45.511Z,100232.69
2022-09-17T11:22:20.080Z,100263.34
2022-09-17T11:25:06.708Z,100278.06
2022-09-17T11:27:33.332Z,100287.44
2022-09-17T11:30:15.807Z,100293.75
2022-09-17T11:32:54.776Z,100288.16
2022-09-17T11:35:29.813Z,100274.00
2022-09-17T11:38:03.946Z,100277.34
2022-09-17T11:41:04.623Z,100285.13
2022-09-17T11:44:03.857Z,100281.25
2022-09-17T11:46:53.974Z,100286.03
2022-09-17T11:49:56.228Z,100289.84
2022-09-17T11:52:24.687Z,100293.63
2022-09-17T11:55:42.886Z,100298.44
2022-09-17T11:58:34.701Z,100304.97
2022-09-17T12:01:18.967Z,100304.22
2022-09-17T12:04:11.423Z,100322.22
2022-09-17T12:06:58.339Z,100318.84
2022-09-17T12:09:28.572Z,100324.31
2022-09-17T12:12:31.739Z,100320.06
2022-09-17T12:15:47.764Z,100323.94
2022-09-17T12:18:42.665Z,100303.84
2022-09-17T12:21:11.056Z,100310.34
2022-09-17T12:23:43.522Z,100311.44
2022-09-17T12:26:19.138Z,100299.09
2022-09-17T12:28:56.674Z,100301.00
2022-09-17T12:31:46.166Z,100301.09
2022-09-17T12:34:25.920Z,100288.75
2022-09-17T12:37:04.342Z,100290.56
2022-09-17T12:39:40.258Z,100279.94
2022-09-17T12:42:46.039Z,100283.47
2022-09-17T12:45:35.170Z,100271.00
2022-09-17T12:48:14.445Z,100264.69
2022-09-17T12:50:53.320Z,100257.47
2022-09-17T12:53:31.966Z,100260.13
2022-09-17T12:56:14.877Z,100269.81
2022-09-17T12:58:56.848Z,100281.28
2022-09-17T13:01:42.514Z,100280.38
2022-09-17T13:04:38.128Z,100278.69
2022-09-17T13:07:41.153Z,100283.22
2022-09-17T13:10:43.206Z,100270.88
2022-09-17T13:13:43.047Z,100258.56
2022-09-17T13:16:19.960Z,100263.88
2022-09-17T13:19:17.628Z,100266.53
2022-09-17T13:22:00.245Z,100280.81
2022-09-17T13:24:30.936Z,100281.72
2022-09-17T13:26:59.186Z,100283.47
2022-09-17T13:29:44.659Z,100262.16
2022-09-17T13:32:33.011Z,100251.47
2022-09-17T13:35:12.026Z,100251.38
2022-09-17T13:37:54.141Z,100233.53
2022-09-17T13:40:23.354Z,100233.41
2022-09-17T13:42:57.930Z,100238.59
2022-09-17T13:45:25.762Z,100230.50
2022-09-17T13:47:53.485Z,100222.38
2022-09-17T13:50:38.095Z,100222.31
2022-09-17T13:53:16.931Z,100213.31
2022-09-17T13:55:51.777Z,100227.47
2022-09-17T13:58:18.643Z,100225.75
2022-09-17T14:01:05.437Z,100209.81
2022-09-17T14:03:34.172Z,100211.66
2022-09-17T14:06:11.031Z,100206.38
2022-09-17T14:08:43.659Z,100217.03
2022-09-17T14:11:22.420Z,100216.19
2022-09-17T14:14:04.382Z,100196.66
2022-09-17T14:16:37.159Z,100199.25
2022-09-17T14:19:16.467Z,100196.47
2022-09-17T14:21:46.289Z,100186.59
2022-09-17T14:24:23.360Z,100193.59
2022-09-17T14:27:02.159Z,100187.28
2022-09-17T14:30:16.039Z,100195.16
2022-09-17T14:32:46.640Z,100196.81
2022-09-17T14:35:20.667Z,100189.47
2022-09-17T14:38:12.701Z,100181.31
2022-09-17T14:40:45.240Z,100188.22
2022-09-17T14:43:19.113Z,100194.47
2022-09-17T14:45:48.674Z,100187.44
2022-09-17T14:48:19.582Z,100190.19
2022-09-17T14:50:46.604Z,100197.38
2022-09-17T14:53:18.860Z,100187.75
2022-09-17T14:55:47.836Z,100199.38
2022-09-17T14:58:36.718Z,100200.47
2022-09-17T15:01:03.873Z,100195.34
2022-09-17T15:03:30.666Z,100199.88
2022-09-17T15:05:57.496Z,100202.59
2022-09-17T15:08:27.917Z,100202.75
2022-09-17T15:11:01.425Z,100208.13
2022-09-17T15:13:42.444Z,100212.69
2022-09-17T15:16:30.556Z,100215.53
2022-09-17T15:19:01.711Z,100212.16
2022-09-17T15:21:35.260Z,100206.97
2022-09-17T15:24:13.506Z,100203.56
2022-09-17T15:26:42.667Z,100199.25
2022-09-17T15:29:13.640Z,100196.63
2022-09-17T15:31:41.136Z,100198.47
2022-09-17T15:34:11.320Z,100188.69
2022-09-17T15:36:38.046Z,100188.69
2022-09-17T15:39:31.438Z,100200.16
2022-09-17T15:41:58.869Z,100197.50
2022-09-17T15:44:31.185Z,100201.91
2022-09-17T15:47:56.280Z,100209.03
2022-09-17T15:50:28.440Z,100207.41
2022-09-17T15:53:05.313Z,100188.84
2022-09-17T15:55:41.242Z,100199.53
2022-09-17T15:58:29.217Z,100188.00
2022-09-17T16:01:15.885Z,100198.66
2022-09-17T16:03:48.039Z,100190.69
2022-09-17T16:06:20.898Z,100185.38
2022-09-17T16:08:57.471Z,100187.22
2022-09-17T16:11:30.037Z,100175.78
2022-09-17T16:13:58.748Z,100185.53
2022-09-17T16:16:36.177Z,100182.88
2022-09-17T16:19:04.357Z,100183.78
2022-09-17T16:21:32.125Z,100190.00
2022-09-17T16:23:59.259Z,100192.72
2022-09-17T16:26:29.282Z,100193.59
2022-09-17T16:29:03.404Z,100188.31
2022-09-17T16:31:30.319Z,100181.25
2022-09-17T16:33:57.073Z,100185.75
2022-09-17T16:36:24.124Z,100188.44
2022-09-17T16:38:50.827Z,100190.22
2022-09-17T16:41:17.504Z,100190.22
2022-09-17T16:43:44.216Z,100186.66
2022-09-17T16:46:11.312Z,100190.25
2022-09-17T16:48:38.515Z,100190.25
2022-09-17T16:51:11.892Z,100193.84
2022-09-17T16:53:38.849Z,100201.00
2022-09-17T16:56:13.997Z,100206.31
2022-09-17T16:58:41.681Z,100220.53
2022-09-17T17:01:13.874Z,100216.13
2022-09-17T17:03:41.321Z,100209.09
2022-09-17T17:06:19.742Z,100214.41
2022-09-17T17:08:46.440Z,100210.88
2022-09-17T17:11:13.445Z,100223.31
2022-09-17T17:13:42.277Z,100220.66
2022-09-17T17:16:10.825Z,100224.25
2022-09-17T17:18:37.838Z,100224.25
2022-09-17T17:21:06.208Z,100225.13
2022-09-17T17:23:33.897Z,100230.47
2022-09-17T17:26:00.755Z,100228.72
2022-09-17T17:28:27.461Z,100231.44
2022-09-17T17:30:54.268Z,100228.78
2022-09-17T17:33:21.056Z,100230.56
2022-09-17T17:35:47.756Z,100231.47
2022-09-17T17:38:17.432Z,100227.94
2022-09-17T17:40:45.183Z,100223.47
2022-09-17T17:43:12.518Z,100233.22
2022-09-17T17:45:39.937Z,100239.44
2022-09-17T17:48:06.645Z,100247.47
2022-09-17T17:50:33.498Z,100252.81
2022-09-17T17:53:00.221Z,100247.50
2022-09-17T17:55:26.976Z,100252.00
2022-09-17T17:58:01.027Z,100272.47
2022-09-17T18:00:28.490Z,100256.56
2022-09-17T18:02:55.253Z,100266.38
2022-09-17T18:05:22.022Z,100268.13
2022-09-17T18:07:49.542Z,100272.56
2022-09-17T18:10:16.526Z,100276.13
2022-09-17T18:12:50.321Z,100278.78
2022-09-17T18:15:17.266Z,100277.91
2022-09-17T18:17:43.984Z,100285.88
2022-09-17T18:20:10.958Z,100282.31
2022-09-17T18:22:40.560Z,100276.09
2022-09-17T18:25:07.698Z,100276.09
2022-09-17T18:27:34.402Z,100276.94
2022-09-17T18:30:01.137Z,100284.09
2022-09-17T18:32:28.021Z,100289.41
2022-09-17T18:34:54.734Z,100283.22
2022-09-17T18:37:21.452Z,100285.00
2022-09-17T18:40:04.428Z,100290.34
2022-09-17T18:42:31.844Z,100294.81
2022-09-17T18:44:58.557Z,100287.72
2022-09-17T18:47:25.289Z,100304.56
2022-09-17T18:49:51.985Z,100305.44
2022-09-17T18:52:19.083Z,100304.59
2022-09-17T18:54:45.942Z,100311.66
2022-09-17T18:57:13.088Z,100308.13
2022-09-17T18:59:40.077Z,100314.34
2022-09-17T19:02:06.913Z,100304.59
2022-09-17T19:04:33.663Z,100311.75
2022-09-17T19:07:00.895Z,100317.94
2022-09-17T19:09:27.712Z,100319.72
2022-09-17T19:11:54.649Z,100315.28
2022-09-17T19:14:21.350Z,100321.47
2022-09-17T19:16:48.040Z,100317.06
2022-09-17T19:19:14.766Z,100315.28
2022-09-17T19:21:41.441Z,100317.94
2022-09-17T19:24:08.388Z,100329.47
2022-09-17T19:26:35.097Z,100330.31
2022-09-17T19:29:01.957Z,100325.00
2022-09-17T19:31:29.122Z,100335.63
2022-09-17T19:33:56.517Z,100343.59
2022-09-17T19:36:23.268Z,100347.16
2022-09-17T19:38:49.979Z,100346.25
2022-09-17T19:41:18.764Z,100356.00
2022-09-17T19:43:46.122Z,100348.00
2022-09-17T19:46:15.098Z,100353.31
2022-09-17T19:48:49.577Z,100352.44
2022-09-17T19:51:17.712Z,100355.06
2022-09-17T19:53:44.786Z,100354.16
2022-09-17T19:56:16.954Z,100356.88
2022-09-17T19:58:43.650Z,100358.66
2022-09-17T20:01:10.946Z,100368.41
2022-09-17T20:03:41.458Z,100357.75
2022-09-17T20:06:10.483Z,100370.19
2022-09-17T20:08:42.522Z,100379.03
2022-09-17T20:11:12.556Z,100369.28
2022-09-17T20:13:39.245Z,100368.41
2022-09-17T20:16:13.513Z,100368.41
2022-09-17T20:18:40.322Z,100382.59
2022-09-17T20:21:11.866Z,100372.84
2022-09-17T20:23:38.702Z,100366.66
2022-09-17T20:26:06.287Z,100370.22
2022-09-17T20:28:33.374Z,100375.56
2022-09-17T20:31:25.162Z,100366.72
2022-09-17T20:33:57.576Z,100362.28
2022-09-17T20:36:26.536Z,100373.88
2022-09-17T20:41:42.137Z,100380.00
2022-09-17T20:44:08.857Z,100379.13
2022-09-17T20:46:35.641Z,100379.13
2022-09-17T20:49:02.402Z,100393.31
2022-09-17T20:51:30.096Z,100399.53
2022-09-17T20:53:57.436Z,100413.75
2022-09-17T20:56:27.331Z,100403.16
2022-09-17T20:59:04.092Z,100414.72
2022-09-17T21:01:34.372Z,100404.06
2022-09-17T21:04:02.091Z,100400.50
2022-09-17T21:06:34.822Z,100395.16
2022-09-17T21:09:01.989Z,100395.16
2022-09-17T21:11:29.803Z,100400.47
2022-09-17T21:13:56.591Z,100404.00
2022-09-17T21:16:23.398Z,100414.66
2022-09-17T21:18:56.312Z,100406.72
2022-09-17T21:21:23.061Z,100409.41
2022-09-17T21:23:50.648Z,100403.22
2022-09-17T21:26:19.346Z,100416.50
2022-09-17T21:28:47.733Z,100418.28
2022-09-17T21:31:20.233Z,100420.13
2022-09-17T21:33:48.178Z,100420.16
2022-09-17T21:36:17.164Z,100428.16
2022-09-17T21:38:43.909Z,100427.34
2022-09-17T21:41:15.364Z,100424.78
2022-09-17T21:43:43.059Z,100433.69
2022-09-17T21:46:11.961Z,100439.91
2022-09-17T21:48:44.258Z,100447.06
2022-09-17T21:51:12.853Z,100440.91
2022-09-17T21:53:39.818Z,100441.84
2022-09-17T21:56:06.421Z,100456.03
2022-09-17T21:58:33.649Z,100441.03
2022-09-17T22:01:14.275Z,100449.91
2022-09-17T22:03:41.936Z,100445.50
2022-09-17T22:06:12.762Z,100444.63
2022-09-17T22:08:39.940Z,100450.00
2022-09-17T22:11:09.492Z,100454.50
2022-09-17T22:13:36.796Z,100446.56
2022-09-17T22:16:05.019Z,100460.75
2022-09-17T22:18:32.858Z,100447.47
2022-09-17T22:20:59.761Z,100458.97
2022-09-17T22:23:27.229Z,100455.50
2022-09-17T22:26:01.980Z,100459.03
2022-09-17T22:28:28.690Z,100456.38
2022-09-17T22:30:55.480Z,100455.50
2022-09-17T22:33:22.512Z,100459.03
2022-09-17T22:35:49.201Z,100458.19
2022-09-17T22:38:15.887Z,100459.97
2022-09-17T22:40:42.592Z,100452.94
2022-09-17T22:43:09.263Z,100455.59
2022-09-17T22:45:35.941Z,100456.47
2022-09-17T22:48:04.281Z,100452.06
2022-09-17T22:50:30.977Z,100456.47
2022-09-17T22:52:57.735Z,100475.03
2022-09-17T22:55:24.478Z,100454.69
2022-09-17T22:57:51.164Z,100455.59
2022-09-17T23:00:17.956Z,100457.34
2022-09-17T23:02:44.974Z,100455.59
2022-09-17T23:05:11.739Z,100447.63
2022-09-17T23:07:38.431Z,100452.94
2022-09-17T23:10:05.374Z,100453.84
2022-09-17T23:12:32.094Z,100448.56
2022-09-17T23:14:58.829Z,100450.28
2022-09-17T23:17:29.281Z,100449.41
2022-09-17T23:19:56.200Z,100451.16
2022-09-17T23:22:23.151Z,100443.19
2022-09-17T23:24:49.963Z,100452.94
2022-09-17T23:27:16.745Z,100452.09
2022-09-17T23:29:43.437Z,100458.34
2022-09-17T23:32:10.161Z,100459.28
2022-09-17T23:34:37.690Z,100453.09
2022-09-17T23:37:04.419Z,100451.38
2022-09-17T23:39:31.129Z,100450.50
2022-09-17T23:41:57.908Z,100457.63
2022-09-17T23:44:24.613Z,100455.84
2022-09-17T23:46:51.373Z,100447.00
2022-09-17T23:49:18.171Z,100454.97
2022-09-17T23:51:44.905Z,100451.47
2022-09-17T23:54:11.684Z,100447.03
2022-09-17T23:56:38.411Z,100450.59
2022-09-17T23:59:05.198Z,100447.09
